Time;durP1;ratioP1;P1;durP2;ratioP2;P2;SDS_P1;SDS_P2;PMS_P1;PMS_P2;Temp;Humidity;BMP_temperature;BMP_pressure;BME280_temperature;BME280_humidity;BME280_pressure;Samples;Min_cycle;Max_cycle;Signal;HPM_P1;HPM_P2
2021/10/03 00:00:21;;;;;;;;;;;;;;;;;;7329268;19;162236;-16
2021/10/03 00:02:51;;;;;;;7.22;4.28;;;;;;;;;;7333739;19;154359;-15
2021/10/03 09:11:26;;;;;;;1.20;0.80;;;;;;;;;;7369318;19;132390;-13
2021/10/03 09:13:55;;;;;;;2.67;0.98;;;;;;;;;;7364347;19;153524;-15
2021/10/03 09:16:33;;;;;;;2.05;1.10;;;;;;;;;;7364802;19;161790;-16
2021/10/03 09:19:10;;;;;;;4.00;1.25;;;;;;;;;;7366532;19;162607;-16
2021/10/03 09:21:41;;;;;;;2.83;1.15;;;;;;;;;;7365813;19;154048;-16
2021/10/03 09:24:18;;;;;;;4.15;1.10;;;;;;;;;;7367802;19;153530;-14
2021/10/03 09:27:01;;;;;;;2.40;1.30;;;;;;;;;;7366219;19;162043;-15
2021/10/03 09:29:37;;;;;;;2.90;1.10;;;;;;;;;;7365982;19;162398;-15
2021/10/03 09:32:07;;;;;;;1.40;0.90;;;;;;;;;;7364029;19;153935;-14
2021/10/03 09:34:37;;;;;;;2.05;0.95;;;;;;;;;;7364371;19;153609;-14
2021/10/03 09:37:20;;;;;;;1.20;0.90;;;;;;;;;;7363471;19;161949;-14
2021/10/03 09:39:51;;;;;;;;;;;;;;;;;;7365385;19;162344;-16
2021/10/03 09:42:20;;;;;;;2.08;1.00;;;;;;;;;;7365875;19;154552;-15
2021/10/03 09:45:11;;;;;;;1.30;0.82;;;;;;;;;;7367204;19;153353;-14
2021/10/03 09:47:41;;;;;;;2.17;0.90;;;;;;;;;;7366374;19;161885;-15
2021/10/03 09:50:12;;;;;;;2.78;1.00;;;;;;;;;;7366381;19;162588;-16
2021/10/03 09:52:42;;;;;;;2.78;0.98;;;;;;;;;;7366487;19;153977;-16
2021/10/03 09:55:14;;;;;;;4.68;1.30;;;;;;;;;;7366102;19;153595;-16
2021/10/03 09:57:43;;;;;;;1.00;0.77;;;;;;;;;;7363177;19;161949;-16
2021/10/03 10:00:15;;;;;;;2.40;1.10;;;;;;;;;;7361332;19;162440;-23
2021/10/03 10:02:46;;;;;;;2.30;0.80;;;;;;;;;;7363695;19;153952;-13
2021/10/03 10:05:21;;;;;;;1.50;0.80;;;;;;;;;;7362680;19;153659;-14
2021/10/03 10:07:50;;;;;;;1.52;1.00;;;;;;;;;;7366126;19;162047;-14
2021/10/03 10:10:19;;;;;;;2.20;1.00;;;;;;;;;;7360410;19;162306;-16
2021/10/03 10:12:54;;;;;;;0.93;0.80;;;;;;;;;;7337140;19;153938;-17
2021/10/03 10:15:24;;;;;;;2.15;1.00;;;;;;;;;;7337412;19;153593;-15
2021/10/03 10:17:53;;;;;;;2.53;1.10;;;;;;;;;;7337164;19;162176;-15
2021/10/03 10:20:22;;;;;;;1.45;0.75;;;;;;;;;;7335779;19;162387;-14
2021/10/03 10:23:10;;;;;;;1.80;0.82;;;;;;;;;;7337068;19;154142;-16
2021/10/03 10:25:53;;;;;;;0.75;0.70;;;;;;;;;;7334099;19;153572;-16
2021/10/03 10:28:42;;;;;;;1.33;0.73;;;;;;;;;;7334730;19;161885;-15
2021/10/03 10:31:14;;;;;;;0.80;0.70;;;;;;;;;;7335788;19;162524;-16
2021/10/03 10:33:51;;;;;;;2.50;0.93;;;;;;;;;;7333755;19;154010;-16
2021/10/03 10:36:24;;;;;;;1.52;0.63;;;;;;;;;;7325509;19;153651;-15
2021/10/03 10:39:23;;;;;;;2.35;0.82;;;;;;;;;;7330136;19;162009;-17
2021/10/03 10:41:54;;;;;;;2.47;1.00;;;;;;;;;;7333002;19;162501;-17
2021/10/03 10:44:28;;;;;;;1.73;0.75;;;;;;;;;;7335026;19;154306;-15
2021/10/03 10:46:59;;;;;;;1.08;0.75;;;;;;;;;;7336587;19;155004;-14
2021/10/03 10:49:45;;;;;;;1.55;0.77;;;;;;;;;;7336111;19;162045;-15
2021/10/03 10:52:20;;;;;;;1.95;0.80;;;;;;;;;;7328980;19;162132;-17
2021/10/03 10:55:09;;;;;;;2.03;1.00;;;;;;;;;;7329846;19;154335;-17
2021/10/03 10:57:46;;;;;;;1.23;0.57;;;;;;;;;;7333762;19;153577;-14
2021/10/03 11:00:24;;;;;;;1.98;0.80;;;;;;;;;;7333226;19;162088;-17
2021/10/03 11:03:00;;;;;;;1.70;0.80;;;;;;;;;;7334751;19;162224;-16
2021/10/03 11:05:39;;;;;;;3.45;1.20;;;;;;;;;;7334493;19;154077;-18
2021/10/03 11:08:09;;;;;;;1.80;0.73;;;;;;;;;;7334727;19;154193;-16
2021/10/03 11:10:56;;;;;;;2.83;0.90;;;;;;;;;;7333712;19;162210;-16
2021/10/03 11:13:49;;;;;;;3.42;1.08;;;;;;;;;;7334363;19;162479;-16
2021/10/03 11:16:37;;;;;;;2.17;1.20;;;;;;;;;;7332226;19;154208;-16
2021/10/03 11:19:16;;;;;;;5.10;1.35;;;;;;;;;;7334430;19;153491;-17
2021/10/03 11:21:51;;;;;;;2.63;0.90;;;;;;;;;;7332030;19;161998;-16
2021/10/03 11:24:25;;;;;;;3.10;0.90;;;;;;;;;;7329257;19;163357;-16
2021/10/03 11:27:16;;;;;;;0.90;0.80;;;;;;;;;;7334456;19;154181;-15
2021/10/03 11:29:55;;;;;;;3.30;0.90;;;;;;;;;;7334872;19;153618;-15
2021/10/03 11:32:34;;;;;;;1.85;1.00;;;;;;;;;;7332117;19;161890;-16
2021/10/03 11:35:11;;;;;;;1.08;0.70;;;;;;;;;;7333491;19;162602;-14
2021/10/03 11:37:48;;;;;;;1.95;0.90;;;;;;;;;;7334806;19;154028;-14
2021/10/03 11:40:22;;;;;;;1.85;0.98;;;;;;;;;;7331325;19;153858;-16
2021/10/03 11:42:53;;;;;;;4.30;1.33;;;;;;;;;;7332577;19;161761;-14
2021/10/03 11:45:32;;;;;;;2.53;0.90;;;;;;;;;;7331426;19;162533;-18
2021/10/03 11:48:07;;;;;;;1.70;1.00;;;;;;;;;;7332178;19;153767;-15
2021/10/03 11:50:42;;;;;;;1.60;0.90;;;;;;;;;;7332717;19;153496;-17
2021/10/03 11:53:29;;;;;;;3.25;1.02;;;;;;;;;;7333220;19;161958;-16
2021/10/03 11:56:13;;;;;;;2.40;0.95;;;;;;;;;;7334214;19;162468;-16
2021/10/03 11:58:43;;;;;;;3.03;1.08;;;;;;;;;;7330824;19;153860;-14
2021/10/03 12:01:12;;;;;;;1.08;0.90;;;;;;;;;;7331768;19;153615;-15
2021/10/03 12:03:47;;;;;;;3.65;0.98;;;;;;;;;;7332787;19;162209;-16
2021/10/03 12:06:20;;;;;;;3.08;0.85;;;;;;;;;;7329690;19;162695;-16
2021/10/03 12:08:48;;;;;;;2.63;1.05;;;;;;;;;;7332153;19;154032;-16
2021/10/03 12:11:16;;;;;;;0.82;0.73;;;;;;;;;;7330382;19;153568;-17
2021/10/03 12:13:58;;;;;;;1.77;0.88;;;;;;;;;;7333664;19;161816;-16
2021/10/03 12:16:26;;;;;;;3.78;0.85;;;;;;;;;;7331157;19;162296;-15
2021/10/03 12:19:06;;;;;;;1.80;0.75;;;;;;;;;;7332129;19;153963;-15
2021/10/03 12:21:35;;;;;;;1.92;0.80;;;;;;;;;;7330929;19;153643;-17
2021/10/03 12:24:03;;;;;;;1.23;0.80;;;;;;;;;;7333714;19;161986;-13
2021/10/03 12:26:36;;;;;;;1.30;0.70;;;;;;;;;;7328175;19;162333;-15
2021/10/03 12:29:04;;;;;;;2.28;0.85;;;;;;;;;;7332317;19;154174;-17
2021/10/03 12:31:38;;;;;;;0.90;0.80;;;;;;;;;;7332691;19;153597;-17
2021/10/03 12:34:27;;;;;;;1.60;1.08;;;;;;;;;;7331950;19;161800;-17
2021/10/03 12:37:13;;;;;;;2.15;0.80;;;;;;;;;;7329231;19;162548;-17
2021/10/03 12:39:53;;;;;;;1.50;0.88;;;;;;;;;;7331927;19;153966;-15
2021/10/03 12:42:30;;;;;;;0.60;0.60;;;;;;;;;;7333714;19;153543;-16
2021/10/03 12:45:00;;;;;;;0.75;0.75;;;;;;;;;;7330833;19;161808;-15
2021/10/03 12:47:29;;;;;;;1.00;0.70;;;;;;;;;;7331254;19;162324;-17
2021/10/03 12:49:57;;;;;;;2.85;0.88;;;;;;;;;;7332033;19;153998;-15
2021/10/03 12:52:25;;;;;;;1.25;1.02;;;;;;;;;;7328257;19;153601;-16
2021/10/03 12:54:52;;;;;;;3.03;0.80;;;;;;;;;;7326756;19;161843;-14
2021/10/03 12:57:20;;;;;;;1.10;0.80;;;;;;;;;;7330125;19;162387;-14
2021/10/03 12:59:49;;;;;;;3.90;0.98;;;;;;;;;;7332637;19;154346;-14
2021/10/03 13:02:17;;;;;;;2.25;0.80;;;;;;;;;;7324045;19;153519;-15
2021/10/03 13:04:59;;;;;;;5.70;0.88;;;;;;;;;;7331091;19;161957;-15
2021/10/03 13:07:27;;;;;;;2.08;0.70;;;;;;;;;;7330161;19;162523;-15
2021/10/03 13:09:55;;;;;;;2.67;0.90;;;;;;;;;;7327307;19;153939;-15
2021/10/03 13:12:23;;;;;;;1.35;0.90;;;;;;;;;;7329043;19;153507;-15
2021/10/03 13:14:52;;;;;;;3.13;0.82;;;;;;;;;;7330566;19;161771;-16
2021/10/03 13:17:20;;;;;;;1.48;0.70;;;;;;;;;;7329328;19;162387;-15
2021/10/03 13:19:48;;;;;;;0.68;0.60;;;;;;;;;;7330219;19;153866;-16
2021/10/03 13:22:16;;;;;;;0.95;0.70;;;;;;;;;;7329229;19;153508;-14
2021/10/03 13:24:44;;;;;;;1.73;0.70;;;;;;;;;;7323957;19;161989;-16
2021/10/03 13:27:12;;;;;;;1.38;0.85;;;;;;;;;;7325889;19;162753;-25
2021/10/03 13:29:40;;;;;;;1.40;0.87;;;;;;;;;;7324350;19;154050;-14
2021/10/03 13:32:08;;;;;;;1.48;0.85;;;;;;;;;;7326912;19;153557;-16
2021/10/03 13:34:36;;;;;;;3.30;0.95;;;;;;;;;;7327819;19;161991;-14
2021/10/03 13:37:04;;;;;;;1.80;0.70;;;;;;;;;;7328793;19;162354;-15
2021/10/03 13:39:32;;;;;;;4.40;0.90;;;;;;;;;;7328903;19;154042;-13
2021/10/03 13:42:00;;;;;;;3.13;0.75;;;;;;;;;;7327507;19;153853;-15
2021/10/03 13:44:28;;;;;;;1.52;0.80;;;;;;;;;;7329857;19;161822;-19
2021/10/03 13:46:56;;;;;;;2.78;0.80;;;;;;;;;;7334468;19;162419;-20
2021/10/03 13:49:24;;;;;;;3.80;1.25;;;;;;;;;;7333811;19;154035;-13
2021/10/03 13:51:53;;;;;;;1.33;0.73;;;;;;;;;;7333978;19;153659;-15
2021/10/03 13:54:21;;;;;;;3.17;0.70;;;;;;;;;;7336314;19;161948;-14
2021/10/03 13:56:49;;;;;;;1.45;0.95;;;;;;;;;;7336957;19;162306;-16
2021/10/03 14:16:35;;;;;;;1.27;0.93;;;;;;;;;;7368271;19;132387;-16
2021/10/03 14:19:03;;;;;;;2.08;0.80;;;;;;;;;;7363518;19;153514;-16
2021/10/03 14:21:32;;;;;;;2.55;0.80;;;;;;;;;;7363392;19;162290;-16
2021/10/03 14:24:00;;;;;;;1.58;0.80;;;;;;;;;;7360667;19;162355;-15
2021/10/03 14:26:28;;;;;;;2.17;0.82;;;;;;;;;;7364764;19;153936;-16
2021/10/03 14:28:56;;;;;;;1.70;0.90;;;;;;;;;;7363517;19;153604;-15
2021/10/03 14:31:24;;;;;;;1.50;0.70;;;;;;;;;;7364386;19;161856;-16
2021/10/03 14:51:04;;;;;;;1.63;1.10;;;;;;;;;;7365877;19;132319;-18
2021/10/03 14:53:32;;;;;;;2.00;1.08;;;;;;;;;;7363380;19;153764;-17
2021/10/03 14:56:01;;;;;;;2.83;1.08;;;;;;;;;;7362791;19;162276;-17
2021/10/03 14:58:29;;;;;;;1.73;0.90;;;;;;;;;;7364022;19;162300;-15
2021/10/03 15:00:57;;;;;;;4.93;1.23;;;;;;;;;;7361034;19;153882;-18
2021/10/03 15:03:26;;;;;;;2.35;1.00;;;;;;;;;;7364617;19;153513;-16
2021/10/03 15:05:53;;;;;;;1.05;0.95;;;;;;;;;;7363298;19;162172;-15
2021/10/03 15:08:21;;;;;;;1.33;0.77;;;;;;;;;;7364148;19;162292;-15
2021/10/03 15:10:51;;;;;;;3.65;1.25;;;;;;;;;;7364412;19;154495;-15
2021/10/03 15:13:22;;;;;;;0.90;0.80;;;;;;;;;;7365456;19;153659;-16
2021/10/03 15:15:50;;;;;;;1.40;0.93;;;;;;;;;;7367534;19;161795;-15
2021/10/03 15:18:21;;;;;;;2.90;1.00;;;;;;;;;;7362049;19;162463;-16
2021/10/03 15:20:49;;;;;;;2.00;0.60;;;;;;;;;;7361672;19;153899;-18
2021/10/03 15:23:17;;;;;;;2.35;1.10;;;;;;;;;;7362746;19;153506;-18
2021/10/03 15:25:52;;;;;;;2.00;1.00;;;;;;;;;;7362281;19;162371;-15
2021/10/03 15:28:20;;;;;;;1.58;0.93;;;;;;;;;;7362337;19;162306;-17
2021/10/03 15:30:48;;;;;;;3.08;1.00;;;;;;;;;;7363943;19;154086;-15
2021/10/03 15:33:16;;;;;;;1.10;0.80;;;;;;;;;;7362877;19;153724;-17
2021/10/03 15:35:44;;;;;;;1.88;1.00;;;;;;;;;;7360971;19;161885;-14
2021/10/03 15:38:12;;;;;;;1.70;0.90;;;;;;;;;;7362204;19;162426;-15
2021/10/03 15:40:40;;;;;;;1.75;0.82;;;;;;;;;;7360777;19;154123;-15
2021/10/03 15:43:08;;;;;;;2.40;0.98;;;;;;;;;;7364033;19;153817;-15
2021/10/03 15:45:36;;;;;;;1.45;0.93;;;;;;;;;;7363309;19;162135;-16
2021/10/03 15:48:04;;;;;;;1.52;1.00;;;;;;;;;;7365064;19;162484;-14
2021/10/03 15:50:33;;;;;;;2.80;1.13;;;;;;;;;;7350463;19;153938;-13
2021/10/03 15:53:05;;;;;;;1.50;0.85;;;;;;;;;;7335626;19;153494;-15
2021/10/03 15:55:34;;;;;;;2.03;1.10;;;;;;;;;;7332672;19;161997;-14
2021/10/03 15:58:02;;;;;;;4.65;1.10;;;;;;;;;;7324706;19;162391;-14
2021/10/03 16:00:30;;;;;;;2.78;1.02;;;;;;;;;;7332361;19;153961;-15
2021/10/03 19:58:51;;;;;;;55.03;49.53;;;;;;;;;;7102147;19;4311386;-52
2021/10/03 20:14:32;;;;;;;51.03;45.85;;;;;;;;;;7140370;19;3319825;-21
2021/10/03 20:17:01;;;;;;;48.55;43.55;;;;;;;;;;7367778;19;153657;-16
2021/10/03 20:19:29;;;;;;;48.92;43.65;;;;;;;;;;7363225;19;161858;-16
2021/10/03 20:21:58;;;;;;;48.63;42.47;;;;;;;;;;7365734;19;162398;-16
2021/10/03 20:24:26;;;;;;;47.20;42.25;;;;;;;;;;7366834;19;154171;-15
2021/10/03 20:26:54;;;;;;;47.03;42.08;;;;;;;;;;7366584;19;153638;-17
2021/10/03 20:29:22;;;;;;;45.83;40.95;;;;;;;;;;7368711;19;161543;-16
2021/10/03 20:31:50;;;;;;;45.38;40.58;;;;;;;;;;7363930;19;162299;-17
2021/10/03 20:34:18;;;;;;;46.67;41.15;;;;;;;;;;7364592;19;154102;-15
2021/10/03 20:36:46;;;;;;;44.88;39.85;;;;;;;;;;7366118;19;153578;-14
2021/10/03 20:39:14;;;;;;;43.88;39.22;;;;;;;;;;7366104;19;161904;-16
2021/10/03 20:41:42;;;;;;;43.60;38.85;;;;;;;;;;7363079;19;163042;-15
2021/10/03 20:44:10;;;;;;;41.53;37.13;;;;;;;;;;7364734;19;153992;-16
2021/10/03 20:46:39;;;;;;;40.85;36.45;;;;;;;;;;7366096;19;153579;-16
2021/10/03 20:49:08;;;;;;;41.03;36.72;;;;;;;;;;7366106;19;162170;-16
2021/10/03 20:51:36;;;;;;;41.72;37.50;;;;;;;;;;7364301;19;162077;-15
2021/10/03 20:54:04;;;;;;;40.17;35.95;;;;;;;;;;7363502;19;154062;-17
2021/10/03 20:56:32;;;;;;;40.67;36.38;;;;;;;;;;7366160;19;153810;-14
2021/10/03 20:59:00;;;;;;;40.20;36.15;;;;;;;;;;7365694;19;162227;-14
2021/10/03 21:01:30;;;;;;;38.50;34.55;;;;;;;;;;7367200;19;162408;-14
2021/10/03 21:03:58;;;;;;;39.10;34.97;;;;;;;;;;7364980;19;153932;-17
2021/10/03 21:06:26;;;;;;;37.42;33.45;;;;;;;;;;7336153;19;153575;-17
2021/10/03 21:08:53;;;;;;;36.50;32.80;;;;;;;;;;7362930;19;161704;-15
2021/10/03 21:11:22;;;;;;;38.50;34.17;;;;;;;;;;7363971;19;162351;-15
2021/10/03 21:13:50;;;;;;;35.83;32.20;;;;;;;;;;7361744;19;153992;-14
2021/10/03 21:16:18;;;;;;;35.55;31.83;;;;;;;;;;7363262;19;153825;-14
2021/10/03 21:18:45;;;;;;;35.95;32.22;;;;;;;;;;7365153;19;161801;-15
2021/10/03 21:21:13;;;;;;;36.05;32.20;;;;;;;;;;7365195;19;162394;-16
2021/10/03 21:23:41;;;;;;;35.22;31.48;;;;;;;;;;7364523;19;153948;-15
2021/10/03 21:26:10;;;;;;;34.80;31.20;;;;;;;;;;7336747;19;153637;-16
2021/10/03 21:28:37;;;;;;;36.33;32.42;;;;;;;;;;7334675;19;161974;-16
2021/10/03 21:31:06;;;;;;;33.90;30.40;;;;;;;;;;7335197;19;162281;-16
2021/10/03 21:33:35;;;;;;;33.70;30.33;;;;;;;;;;7332213;19;154189;-18
2021/10/03 21:36:07;;;;;;;32.90;29.60;;;;;;;;;;7333759;19;153708;-16
2021/10/03 21:38:35;;;;;;;33.08;29.77;;;;;;;;;;7337284;19;161820;-16
2021/10/03 21:41:02;;;;;;;31.88;28.67;;;;;;;;;;7334885;19;162512;-17
2021/10/03 21:43:30;;;;;;;31.48;28.30;;;;;;;;;;7335974;19;153889;-16
2021/10/03 21:45:59;;;;;;;32.95;28.98;;;;;;;;;;7336782;19;153361;-15
2021/10/03 21:48:27;;;;;;;31.42;28.15;;;;;;;;;;7330739;19;161870;-15
2021/10/03 21:50:56;;;;;;;32.42;29.13;;;;;;;;;;7332863;19;162477;-16
2021/10/03 21:53:24;;;;;;;31.45;28.20;;;;;;;;;;7334316;19;153927;-15
2021/10/03 21:55:51;;;;;;;30.45;27.35;;;;;;;;;;7333599;19;153619;-15
2021/10/03 21:58:19;;;;;;;30.52;27.33;;;;;;;;;;7335958;19;161591;-15
2021/10/03 22:00:47;;;;;;;29.88;26.75;;;;;;;;;;7332832;19;162439;-15
2021/10/03 22:03:16;;;;;;;29.95;26.95;;;;;;;;;;7334872;19;154148;-14
2021/10/03 22:05:43;;;;;;;29.95;26.85;;;;;;;;;;7335581;19;153305;-16
2021/10/03 22:08:11;;;;;;;28.23;25.23;;;;;;;;;;7335882;19;161926;-14
2021/10/03 22:10:40;;;;;;;27.13;24.42;;;;;;;;;;7336703;19;162116;-15
2021/10/03 22:13:08;;;;;;;25.85;23.27;;;;;;;;;;7331790;19;154036;-15
2021/10/03 22:15:36;;;;;;;27.70;24.80;;;;;;;;;;7333621;19;154112;-14
2021/10/03 22:18:05;;;;;;;26.50;23.77;;;;;;;;;;7335281;19;161737;-15
2021/10/03 22:20:33;;;;;;;27.73;24.73;;;;;;;;;;7334631;19;162239;-15
2021/10/03 22:23:02;;;;;;;24.60;22.02;;;;;;;;;;7335441;19;153965;-15
2021/10/03 22:25:31;;;;;;;24.48;21.98;;;;;;;;;;7334153;19;153606;-14
2021/10/03 22:28:00;;;;;;;25.50;22.88;;;;;;;;;;7334020;19;161881;-15
2021/10/03 22:30:28;;;;;;;24.70;21.88;;;;;;;;;;7334593;19;162165;-14
2021/10/03 22:32:56;;;;;;;23.45;21.08;;;;;;;;;;7333243;19;154003;-16
2021/10/03 22:35:24;;;;;;;23.95;21.45;;;;;;;;;;7332979;19;153216;-15
2021/10/03 22:37:52;;;;;;;22.65;20.23;;;;;;;;;;7326046;19;161966;-17
2021/10/03 22:40:20;;;;;;;22.90;20.65;;;;;;;;;;7334463;19;162405;-17
2021/10/03 22:42:48;;;;;;;21.95;19.58;;;;;;;;;;7335040;19;154142;-15
2021/10/03 22:45:16;;;;;;;21.67;19.42;;;;;;;;;;7333312;19;153298;-16
2021/10/03 22:47:43;;;;;;;21.23;19.02;;;;;;;;;;7333866;19;161785;-14
2021/10/03 22:50:12;;;;;;;21.15;18.95;;;;;;;;;;7329130;19;162459;-19
2021/10/03 22:52:41;;;;;;;20.63;18.33;;;;;;;;;;7335696;19;154075;-16
2021/10/03 22:55:11;;;;;;;19.38;17.25;;;;;;;;;;7329810;19;153895;-15
2021/10/03 22:57:39;;;;;;;19.77;17.77;;;;;;;;;;7331770;19;161829;-14
2021/10/03 23:00:10;;;;;;;19.13;17.23;;;;;;;;;;7333927;19;162497;-15
2021/10/03 23:02:39;;;;;;;19.23;16.27;;;;;;;;;;7335163;19;153714;-16
2021/10/03 23:05:08;;;;;;;18.52;16.60;;;;;;;;;;7335736;19;154315;-15
2021/10/03 23:07:36;;;;;;;18.70;16.85;;;;;;;;;;7334194;19;161722;-15
2021/10/03 23:10:05;;;;;;;17.67;15.88;;;;;;;;;;7329897;19;162589;-15
2021/10/03 23:12:33;;;;;;;16.17;14.48;;;;;;;;;;7328371;19;154112;-16
2021/10/03 23:15:02;;;;;;;8.35;7.53;;;;;;;;;;7325020;19;153589;-15
2021/10/03 23:17:30;;;;;;;11.63;10.20;;;;;;;;;;7328635;19;163464;-14
